createdAt,value
2018-11-10T00:00:15.124Z,1003.42
2018-11-10T00:01:15.314Z,1003.43
2018-11-10T00:02:15.001Z,1003.44
2018-11-10T00:03:14.990Z,1003.49
2018-11-10T00:04:15.012Z,1003.47
2018-11-10T00:05:15.102Z,1003.46
2018-11-10T00:06:14.903Z,1003.47
2018-11-10T00:07:14.935Z,1003.51
2018-11-10T00:08:15.284Z,1003.50
2018-11-10T00:09:14.833Z,1003.45
2018-11-10T00:10:14.836Z,1003.43
2018-11-10T00:11:14.821Z,1003.46
2018-11-10T00:12:14.796Z,1003.41
2018-11-10T00:13:14.816Z,1003.43
2018-11-10T00:14:14.762Z,1003.37
2018-11-10T00:15:15.351Z,1003.38
2018-11-10T00:16:14.722Z,1003.34
2018-11-10T00:17:14.747Z,1003.32
2018-11-10T00:18:14.678Z,1003.28
2018-11-10T00:19:14.767Z,1003.24
2018-11-10T00:20:14.731Z,1003.25
2018-11-10T00:21:14.608Z,1003.26
2018-11-10T00:22:14.857Z,1003.24
2018-11-10T00:23:14.588Z,1003.22
2018-11-10T00:25:14.580Z,1003.20
2018-11-10T00:26:14.671Z,1003.17
2018-11-10T00:27:14.487Z,1003.17
2018-11-10T00:28:14.764Z,1003.18
2018-11-10T00:29:14.646Z,1003.20
2018-11-10T00:30:14.552Z,1003.20
2018-11-10T00:31:14.473Z,1003.15
2018-11-10T00:32:14.389Z,1003.20
2018-11-10T00:33:14.348Z,1003.19
2018-11-10T00:34:14.628Z,1003.22
2018-11-10T00:35:14.309Z,1003.14
2018-11-10T00:36:14.293Z,1003.13
2018-11-10T00:37:14.292Z,1003.18
2018-11-10T00:38:14.836Z,1003.16
2018-11-10T00:39:14.278Z,1003.17
2018-11-10T00:40:14.512Z,1003.15
2018-11-10T00:41:14.198Z,1003.14
2018-11-10T00:42:14.320Z,1003.13
2018-11-10T00:43:14.202Z,1003.10
2018-11-10T00:44:14.183Z,1003.12
2018-11-10T00:45:14.111Z,1003.13
2018-11-10T00:46:14.420Z,1003.10
2018-11-10T00:47:14.127Z,1003.07
2018-11-10T00:48:14.045Z,1003.08
2018-11-10T00:49:14.022Z,1003.04
2018-11-10T00:50:14.053Z,1003.06
2018-11-10T00:51:13.991Z,1003.05
2018-11-10T00:52:14.288Z,1003.06
2018-11-10T00:53:14.034Z,1003.04
2018-11-10T00:55:13.939Z,1002.99
2018-11-10T00:56:14.196Z,1002.99
2018-11-10T00:57:14.101Z,1002.99
2018-11-10T00:58:14.167Z,1002.97
2018-11-10T00:59:13.853Z,1003.00
2018-11-10T01:00:13.885Z,1003.00
2018-11-10T01:01:13.789Z,1002.96
2018-11-10T01:02:13.787Z,1002.98
2018-11-10T01:03:13.774Z,1002.99
2018-11-10T01:04:13.854Z,1002.89
2018-11-10T01:05:14.039Z,1002.92
2018-11-10T01:06:16.198Z,1002.89
2018-11-10T01:07:13.676Z,1002.91
2018-11-10T01:08:13.645Z,1002.89
2018-11-10T01:09:13.934Z,1002.93
2018-11-10T01:10:13.699Z,1002.91
2018-11-10T01:11:13.578Z,1002.90
2018-11-10T01:13:13.903Z,1002.88
2018-11-10T01:14:13.526Z,1002.91
2018-11-10T01:15:13.524Z,1002.89
2018-11-10T01:16:13.479Z,1002.88
2018-11-10T01:17:13.458Z,1002.87
2018-11-10T01:18:13.462Z,1002.88
2018-11-10T01:19:13.422Z,1002.82
2018-11-10T01:20:13.707Z,1002.82
2018-11-10T01:21:13.389Z,1002.79
2018-11-10T01:22:13.479Z,1002.79
2018-11-10T01:23:13.331Z,1002.78
2018-11-10T01:24:13.322Z,1002.76
2018-11-10T01:25:13.342Z,1002.74
2018-11-10T01:26:13.290Z,1002.74
2018-11-10T01:27:13.618Z,1002.69
2018-11-10T01:28:13.257Z,1002.68
2018-11-10T01:29:13.347Z,1002.68
2018-11-10T01:30:13.304Z,1002.65
2018-11-10T01:32:13.156Z,1002.63
2018-11-10T01:33:13.143Z,1002.60
2018-11-10T01:34:13.416Z,1002.58
2018-11-10T01:35:13.096Z,1002.56
2018-11-10T01:36:13.081Z,1002.56
2018-11-10T01:37:13.060Z,1002.57
2018-11-10T01:38:13.238Z,1002.58
2018-11-10T01:39:13.027Z,1002.55
2018-11-10T01:40:13.138Z,1002.57
2018-11-10T01:41:13.281Z,1002.59
2018-11-10T01:42:12.974Z,1002.57
2018-11-10T01:43:12.938Z,1002.58
2018-11-10T01:44:13.029Z,1002.57
2018-11-10T01:45:12.891Z,1002.56
2018-11-10T01:46:13.074Z,1002.54
2018-11-10T01:47:12.850Z,1002.53
2018-11-10T01:48:13.138Z,1002.53
2018-11-10T01:49:12.809Z,1002.55
2018-11-10T01:50:12.792Z,1002.50
2018-11-10T01:51:12.772Z,1002.49
2018-11-10T01:52:12.748Z,1002.50
2018-11-10T01:53:12.742Z,1002.47
2018-11-10T01:55:13.301Z,1002.49
2018-11-10T01:56:12.680Z,1002.47
2018-11-10T01:57:12.656Z,1002.47
2018-11-10T01:58:12.643Z,1002.46
2018-11-10T01:59:12.705Z,1002.46
2018-11-10T02:00:12.609Z,1002.43
2018-11-10T02:01:13.085Z,1002.44
2018-11-10T02:02:12.556Z,1002.43
2018-11-10T02:03:12.533Z,1002.39
2018-11-10T02:04:12.528Z,1002.35
2018-11-10T02:05:12.503Z,1002.35
2018-11-10T02:06:12.672Z,1002.32
2018-11-10T02:07:12.882Z,1002.33
2018-11-10T02:08:12.437Z,1002.32
2018-11-10T02:09:12.425Z,1002.30
2018-11-10T02:10:12.414Z,1002.29
2018-11-10T02:11:12.485Z,1002.25
2018-11-10T02:12:12.366Z,1002.23
2018-11-10T02:13:12.642Z,1002.20
2018-11-10T02:14:12.318Z,1002.15
2018-11-10T02:15:12.325Z,1002.15
2018-11-10T02:17:12.394Z,1002.12
2018-11-10T02:18:12.241Z,1002.10
2018-11-10T02:19:12.508Z,1002.12
2018-11-10T02:21:12.176Z,1002.14
2018-11-10T02:22:12.194Z,1002.12
2018-11-10T02:23:12.136Z,1002.07
2018-11-10T02:24:12.122Z,1002.12
2018-11-10T02:25:12.411Z,1002.08
2018-11-10T02:26:12.059Z,1002.07
2018-11-10T02:27:13.339Z,1002.02
2018-11-10T02:28:12.031Z,1001.99
2018-11-10T02:29:12.005Z,1002.00
2018-11-10T02:30:12.006Z,1001.93
2018-11-10T02:31:12.181Z,1001.98
2018-11-10T02:32:12.468Z,1001.94
2018-11-10T02:33:11.921Z,1002.00
2018-11-10T02:34:11.908Z,1001.94
2018-11-10T02:35:11.882Z,1001.94
2018-11-10T02:36:11.868Z,1001.94
2018-11-10T02:38:12.113Z,1001.89
2018-11-10T02:40:11.800Z,1001.86
2018-11-10T02:41:11.794Z,1001.89
2018-11-10T02:42:11.749Z,1001.85
2018-11-10T02:43:11.733Z,1001.86
2018-11-10T02:44:11.694Z,1001.79
2018-11-10T02:45:11.981Z,1001.87
2018-11-10T02:46:13.088Z,1001.87
2018-11-10T02:47:11.627Z,1001.81
2018-11-10T02:48:11.611Z,1001.80
2018-11-10T02:49:11.895Z,1001.78
2018-11-10T02:50:11.638Z,1001.81
2018-11-10T02:51:11.757Z,1001.80
2018-11-10T02:52:12.627Z,1001.79
2018-11-10T02:53:11.523Z,1001.77
2018-11-10T02:54:12.145Z,1001.78
2018-11-10T02:55:11.578Z,1001.70
2018-11-10T02:56:11.518Z,1001.69
2018-11-10T02:57:11.526Z,1001.68
2018-11-10T02:59:11.955Z,1001.68
2018-11-10T03:01:11.658Z,1001.66
2018-11-10T03:02:11.374Z,1001.67
2018-11-10T03:03:11.306Z,1001.66
2018-11-10T03:05:11.573Z,1001.64
2018-11-10T03:06:11.257Z,1001.64
2018-11-10T03:07:11.240Z,1001.59
2018-11-10T03:08:11.203Z,1001.59
2018-11-10T03:09:11.199Z,1001.59
2018-11-10T03:10:11.385Z,1001.59
2018-11-10T03:11:11.433Z,1001.59
2018-11-10T03:12:11.409Z,1001.53
2018-11-10T03:13:11.102Z,1001.56
2018-11-10T03:14:11.071Z,1001.55
2018-11-10T03:15:11.107Z,1001.60
2018-11-10T03:16:11.068Z,1001.55
2018-11-10T03:17:11.012Z,1001.54
2018-11-10T03:18:11.287Z,1001.52
2018-11-10T03:19:10.964Z,1001.53
2018-11-10T03:21:10.928Z,1001.47
2018-11-10T03:22:10.906Z,1001.47
2018-11-10T03:23:10.884Z,1001.39
2018-11-10T03:24:11.116Z,1001.36
2018-11-10T03:25:11.046Z,1001.37
2018-11-10T03:26:10.926Z,1001.32
2018-11-10T03:27:10.804Z,1001.31
2018-11-10T03:28:10.804Z,1001.30
2018-11-10T03:29:10.765Z,1001.27
2018-11-10T03:30:10.997Z,1001.33
2018-11-10T03:31:10.737Z,1001.32
2018-11-10T03:32:10.704Z,1001.33
2018-11-10T03:33:10.684Z,1001.28
2018-11-10T03:34:10.660Z,1001.27
2018-11-10T03:35:10.649Z,1001.25
2018-11-10T03:36:10.919Z,1001.22
2018-11-10T03:37:10.714Z,1001.23
2018-11-10T03:38:10.693Z,1001.25
2018-11-10T03:39:10.870Z,1001.23
2018-11-10T03:40:10.869Z,1001.18
2018-11-10T03:41:10.537Z,1001.16
2018-11-10T03:42:10.859Z,1001.18
2018-11-10T03:43:10.508Z,1001.15
2018-11-10T03:44:10.495Z,1001.16
2018-11-10T03:45:10.472Z,1001.13
2018-11-10T03:47:10.408Z,1001.09
2018-11-10T03:48:10.386Z,1001.06
2018-11-10T03:49:10.867Z,1001.06
2018-11-10T03:50:10.366Z,1001.10
2018-11-10T03:51:10.329Z,1001.09
2018-11-10T03:52:10.304Z,1001.04
2018-11-10T03:53:10.338Z,1001.14
2018-11-10T03:54:10.268Z,1001.11
2018-11-10T03:55:10.546Z,1001.11
2018-11-10T03:56:10.221Z,1001.12
2018-11-10T03:57:10.204Z,1001.10
2018-11-10T03:58:10.185Z,1001.12
2018-11-10T03:59:10.156Z,1001.08
2018-11-10T04:00:10.134Z,1001.12
2018-11-10T04:01:10.165Z,1001.08
2018-11-10T04:02:10.550Z,1001.06
2018-11-10T04:03:10.087Z,1001.08
2018-11-10T04:04:10.072Z,1001.03
2018-11-10T04:05:10.070Z,1001.03
2018-11-10T04:06:10.018Z,1000.96
2018-11-10T04:07:10.012Z,1000.95
2018-11-10T04:08:10.276Z,1000.92
2018-11-10T04:09:10.209Z,1000.91
2018-11-10T04:10:09.941Z,1000.87
2018-11-10T04:11:09.918Z,1000.87
2018-11-10T04:12:10.095Z,1000.85
2018-11-10T04:13:09.973Z,1000.86
2018-11-10T04:14:09.958Z,1000.87
2018-11-10T04:15:09.843Z,1000.84
2018-11-10T04:16:10.166Z,1000.84
2018-11-10T04:17:09.797Z,1000.78
2018-11-10T04:18:09.806Z,1000.84
2018-11-10T04:19:09.870Z,1000.87
2018-11-10T04:20:10.010Z,1000.83
2018-11-10T04:21:09.852Z,1000.80
2018-11-10T04:22:09.715Z,1000.80
2018-11-10T04:23:09.949Z,1000.80
2018-11-10T04:24:10.092Z,1000.77
2018-11-10T04:25:09.664Z,1000.78
2018-11-10T04:26:09.738Z,1000.77
2018-11-10T04:27:09.778Z,1000.74
2018-11-10T04:28:10.297Z,1000.76
2018-11-10T04:29:09.869Z,1000.74
2018-11-10T04:30:09.859Z,1000.75
2018-11-10T04:31:09.530Z,1000.76
2018-11-10T04:33:09.495Z,1000.79
2018-11-10T04:34:09.764Z,1000.78
2018-11-10T04:35:09.442Z,1000.76
2018-11-10T04:36:09.535Z,1000.78
2018-11-10T04:37:09.709Z,1000.73
2018-11-10T04:38:10.662Z,1000.70
2018-11-10T04:39:09.352Z,1000.73
2018-11-10T04:40:09.357Z,1000.73
2018-11-10T04:41:09.334Z,1000.73
2018-11-10T04:42:09.316Z,1000.72
2018-11-10T04:43:09.598Z,1000.68
2018-11-10T04:44:09.379Z,1000.66
2018-11-10T04:45:09.264Z,1000.65
2018-11-10T04:47:09.220Z,1000.63
2018-11-10T04:48:09.182Z,1000.57
2018-11-10T04:49:09.459Z,1000.51
2018-11-10T04:50:09.458Z,1000.51
2018-11-10T04:51:09.130Z,1000.48
2018-11-10T04:52:09.100Z,1000.44
2018-11-10T04:53:09.089Z,1000.37
2018-11-10T04:55:09.355Z,1000.36
2018-11-10T04:56:09.236Z,1000.38
2018-11-10T04:57:09.260Z,1000.39
2018-11-10T04:58:09.130Z,1000.33
2018-11-10T04:59:08.980Z,1000.32
2018-11-10T05:00:10.140Z,1000.32
2018-11-10T05:01:09.242Z,1000.28
2018-11-10T05:02:09.256Z,1000.31
2018-11-10T05:03:08.878Z,1000.28
2018-11-10T05:04:08.855Z,1000.22
2018-11-10T05:05:08.858Z,1000.30
2018-11-10T05:06:08.922Z,1000.29
2018-11-10T05:07:09.415Z,1000.26
2018-11-10T05:08:08.814Z,1000.29
2018-11-10T05:09:08.865Z,1000.25
2018-11-10T05:10:08.860Z,1000.26
2018-11-10T05:11:09.953Z,1000.27
2018-11-10T05:12:08.734Z,1000.25
2018-11-10T05:13:08.986Z,1000.25
2018-11-10T05:14:08.674Z,1000.29
2018-11-10T05:15:08.649Z,1000.22
2018-11-10T05:16:08.626Z,1000.29
2018-11-10T05:17:08.691Z,1000.25
2018-11-10T05:18:08.888Z,1000.22
2018-11-10T05:19:08.889Z,1000.21
2018-11-10T05:20:08.672Z,1000.21
2018-11-10T05:21:08.881Z,1000.23
2018-11-10T05:22:08.527Z,1000.23
2018-11-10T05:23:08.487Z,1000.19
2018-11-10T05:24:08.573Z,1000.12
2018-11-10T05:25:08.468Z,1000.16
2018-11-10T05:27:08.764Z,1000.19
2018-11-10T05:28:08.402Z,1000.20
2018-11-10T05:29:08.372Z,1000.18
2018-11-10T05:30:08.369Z,1000.13
2018-11-10T05:31:08.374Z,1000.14
2018-11-10T05:32:08.447Z,1000.12
2018-11-10T05:33:08.352Z,1000.13
2018-11-10T05:34:08.966Z,1000.15
2018-11-10T05:35:08.261Z,1000.20
2018-11-10T05:36:08.262Z,1000.16
2018-11-10T05:37:08.215Z,1000.12
2018-11-10T05:38:09.395Z,1000.09
2018-11-10T05:39:08.172Z,1000.07
2018-11-10T05:40:08.153Z,1000.05
2018-11-10T05:41:08.447Z,1000.08
2018-11-10T05:43:08.128Z,1000.10
2018-11-10T05:44:08.099Z,1000.08
2018-11-10T05:45:08.102Z,1000.09
2018-11-10T05:46:08.039Z,1000.11
2018-11-10T05:47:08.119Z,1000.09
2018-11-10T05:48:08.305Z,1000.06
2018-11-10T05:49:08.026Z,1000.10
2018-11-10T05:50:07.967Z,1000.09
2018-11-10T05:51:07.951Z,1000.10
2018-11-10T05:52:07.928Z,1000.09
2018-11-10T05:53:07.907Z,1000.06
2018-11-10T05:54:07.881Z,1000.06
2018-11-10T05:55:08.156Z,1000.03
2018-11-10T05:56:08.362Z,999.98
2018-11-10T05:57:07.905Z,999.95
2018-11-10T05:58:07.797Z,1000.00
2018-11-10T05:59:08.098Z,999.95
2018-11-10T06:00:07.776Z,999.92
2018-11-10T06:01:07.767Z,999.94
2018-11-10T06:02:08.048Z,999.94
2018-11-10T06:03:07.748Z,999.96
2018-11-10T06:04:07.754Z,1000.02
2018-11-10T06:05:07.737Z,999.99
2018-11-10T06:06:07.989Z,1000.03
2018-11-10T06:07:07.651Z,1000.01
2018-11-10T06:08:07.618Z,1000.07
2018-11-10T06:09:07.982Z,999.99
2018-11-10T06:10:07.815Z,1000.02
2018-11-10T06:11:07.623Z,1000.06
2018-11-10T06:12:07.657Z,1000.02
2018-11-10T06:13:07.508Z,1000.05
2018-11-10T06:14:07.831Z,1000.02
2018-11-10T06:16:09.057Z,1000.06
2018-11-10T06:17:07.426Z,1000.04
2018-11-10T06:18:07.413Z,1000.06
2018-11-10T06:19:07.691Z,1000.04
2018-11-10T06:20:07.388Z,1000.05
2018-11-10T06:21:08.058Z,1000.05
2018-11-10T06:22:07.649Z,999.99
2018-11-10T06:24:07.330Z,1000.04
2018-11-10T06:25:07.313Z,1000.04
2018-11-10T06:26:07.401Z,1000.05
2018-11-10T06:27:07.253Z,1000.06
2018-11-10T06:28:07.528Z,1000.04
2018-11-10T06:29:07.215Z,1000.08
2018-11-10T06:30:07.220Z,1000.14
2018-11-10T06:31:07.566Z,1000.18
2018-11-10T06:32:07.549Z,1000.16
2018-11-10T06:33:07.200Z,1000.16
2018-11-10T06:34:07.417Z,1000.20
2018-11-10T06:35:07.202Z,1000.21
2018-11-10T06:36:07.075Z,1000.24
2018-11-10T06:37:07.162Z,1000.23
2018-11-10T06:38:07.141Z,1000.20
2018-11-10T06:39:07.224Z,1000.18
2018-11-10T06:40:07.311Z,1000.14
2018-11-10T06:41:06.984Z,1000.21
2018-11-10T06:42:06.964Z,1000.20
2018-11-10T06:43:06.928Z,1000.26
2018-11-10T06:44:06.910Z,1000.20
2018-11-10T06:45:06.890Z,1000.19
2018-11-10T06:46:07.163Z,1000.13
2018-11-10T06:47:06.915Z,1000.15
2018-11-10T06:48:06.854Z,1000.13
2018-11-10T06:50:06.807Z,1000.17
2018-11-10T06:51:06.866Z,1000.21
2018-11-10T06:52:06.882Z,1000.14
2018-11-10T06:53:07.109Z,1000.05
2018-11-10T06:54:06.709Z,1000.09
2018-11-10T06:55:06.688Z,1000.08
2018-11-10T06:56:06.697Z,1000.08
2018-11-10T06:57:06.647Z,1000.05
2018-11-10T06:58:06.632Z,1000.05
2018-11-10T06:59:06.720Z,1000.11
2018-11-10T07:00:06.927Z,1000.07
2018-11-10T07:01:06.574Z,1000.11
2018-11-10T07:02:07.261Z,1000.08
2018-11-10T07:03:06.767Z,1000.06
2018-11-10T07:04:06.541Z,1000.04
2018-11-10T07:05:06.563Z,1000.00
2018-11-10T07:06:06.572Z,999.99
2018-11-10T07:07:07.984Z,1000.02
2018-11-10T07:08:06.459Z,1000.02
2018-11-10T07:09:06.453Z,999.94
2018-11-10T07:10:06.451Z,999.99
2018-11-10T07:11:06.711Z,999.97
2018-11-10T07:12:06.381Z,999.97
2018-11-10T07:13:06.376Z,999.97
2018-11-10T07:14:06.669Z,999.99
2018-11-10T07:15:06.331Z,999.99
2018-11-10T07:16:06.368Z,999.95
2018-11-10T07:18:06.338Z,999.97
2018-11-10T07:19:06.278Z,999.98
2018-11-10T07:20:06.337Z,999.95
2018-11-10T07:21:06.512Z,999.96
2018-11-10T07:22:06.178Z,999.93
2018-11-10T07:23:06.147Z,999.97
2018-11-10T07:24:06.463Z,999.96
2018-11-10T07:25:06.181Z,999.92
2018-11-10T07:26:06.110Z,999.95
2018-11-10T07:27:06.100Z,999.92
2018-11-10T07:28:06.377Z,999.94
2018-11-10T07:29:06.045Z,999.96
2018-11-10T07:30:06.041Z,999.94
2018-11-10T07:31:06.031Z,999.92
2018-11-10T07:32:06.154Z,999.94
2018-11-10T07:33:05.983Z,999.96
2018-11-10T07:34:05.998Z,999.95
2018-11-10T07:35:06.227Z,999.95
2018-11-10T07:36:05.943Z,999.95
2018-11-10T07:37:05.980Z,999.89
2018-11-10T07:38:05.882Z,999.87
2018-11-10T07:39:05.873Z,999.87
2018-11-10T07:40:05.846Z,999.87
2018-11-10T07:41:06.060Z,999.85
2018-11-10T07:42:05.795Z,999.88
2018-11-10T07:43:06.007Z,999.88
2018-11-10T07:44:05.767Z,999.84
2018-11-10T07:45:06.114Z,999.81
2018-11-10T07:46:05.737Z,999.80
2018-11-10T07:47:06.044Z,999.78
2018-11-10T07:48:05.703Z,999.75
2018-11-10T07:49:05.753Z,999.70
2018-11-10T07:50:05.677Z,999.73
2018-11-10T07:51:05.624Z,999.80
2018-11-10T07:52:05.599Z,999.78
2018-11-10T07:53:05.980Z,999.73
2018-11-10T07:54:05.569Z,999.73
2018-11-10T07:55:05.549Z,999.77
2018-11-10T07:56:05.631Z,999.75
2018-11-10T07:57:06.049Z,999.77
2018-11-10T07:58:05.522Z,999.76
2018-11-10T07:59:05.722Z,999.79
2018-11-10T08:00:05.476Z,999.78
2018-11-10T08:01:05.478Z,999.77
2018-11-10T08:02:05.496Z,999.76
2018-11-10T08:03:05.742Z,999.77
2018-11-10T08:04:05.452Z,999.77
2018-11-10T08:05:05.681Z,999.76
2018-11-10T08:06:05.370Z,999.78
2018-11-10T08:07:05.340Z,999.81
2018-11-10T08:08:05.329Z,999.80
2018-11-10T08:09:05.556Z,999.75
2018-11-10T08:10:05.344Z,999.67
2018-11-10T08:11:06.003Z,999.66
2018-11-10T08:12:05.531Z,999.64
2018-11-10T08:13:05.223Z,999.66
2018-11-10T08:14:05.191Z,999.73
2018-11-10T08:15:05.206Z,999.73
2018-11-10T08:16:05.171Z,999.70
2018-11-10T08:17:05.154Z,999.68
2018-11-10T08:18:05.630Z,999.69
2018-11-10T08:19:06.392Z,999.74
2018-11-10T08:20:05.088Z,999.72
2018-11-10T08:21:05.078Z,999.70
2018-11-10T08:22:05.071Z,999.69
2018-11-10T08:23:05.027Z,999.70
2018-11-10T08:24:05.312Z,999.67
2018-11-10T08:25:05.053Z,999.70
2018-11-10T08:26:04.983Z,999.72
2018-11-10T08:27:05.057Z,999.76
2018-11-10T08:28:18.460Z,999.81
2018-11-10T08:29:04.950Z,999.88
2018-11-10T08:30:04.994Z,999.90
2018-11-10T08:31:05.228Z,999.91
2018-11-10T08:32:04.889Z,999.97
2018-11-10T08:34:04.846Z,1000.07
2018-11-10T08:35:04.821Z,1000.13
2018-11-10T08:37:05.091Z,1000.13
2018-11-10T08:38:04.878Z,1000.13
2018-11-10T08:39:04.776Z,1000.18
2018-11-10T08:40:04.749Z,1000.16
2018-11-10T08:41:04.750Z,1000.15
2018-11-10T08:42:04.695Z,1000.19
2018-11-10T08:43:04.928Z,1000.18
2018-11-10T08:44:04.953Z,1000.21
2018-11-10T08:45:04.848Z,1000.26
2018-11-10T08:46:04.644Z,1000.30
2018-11-10T08:47:04.615Z,1000.31
2018-11-10T08:48:04.765Z,1000.26
2018-11-10T08:49:04.730Z,1000.31
2018-11-10T08:50:04.906Z,1000.28
2018-11-10T08:51:04.548Z,1000.27
2018-11-10T08:52:04.532Z,1000.29
2018-11-10T08:53:04.518Z,1000.34
2018-11-10T08:54:04.551Z,1000.30
2018-11-10T08:55:06.231Z,1000.31
2018-11-10T08:56:04.764Z,1000.31
2018-11-10T08:57:04.429Z,1000.35
2018-11-10T08:58:04.430Z,1000.36
2018-11-10T08:59:04.431Z,1000.33
2018-11-10T09:01:23.572Z,1000.37
2018-11-10T09:02:06.025Z,1000.38
2018-11-10T09:03:05.015Z,1000.36
2018-11-10T09:04:23.523Z,1000.41
2018-11-10T09:06:04.276Z,1000.36
2018-11-10T09:07:04.990Z,1000.38
2018-11-10T09:08:04.550Z,1000.38
2018-11-10T09:09:04.236Z,1000.33
2018-11-10T09:10:04.220Z,1000.35
2018-11-10T09:11:04.226Z,1000.39
2018-11-10T09:12:04.208Z,1000.36
2018-11-10T09:13:04.195Z,1000.26
2018-11-10T09:14:04.465Z,1000.32
2018-11-10T09:15:04.162Z,1000.29
2018-11-10T09:16:04.137Z,1000.29
2018-11-10T09:17:04.121Z,1000.32
2018-11-10T09:18:04.119Z,1000.31
2018-11-10T09:19:04.495Z,1000.28
2018-11-10T09:20:05.859Z,1000.26
2018-11-10T09:21:04.282Z,1000.27
2018-11-10T09:22:04.022Z,1000.32
2018-11-10T09:23:04.034Z,1000.33
2018-11-10T09:24:04.013Z,1000.28
2018-11-10T09:25:04.047Z,1000.29
2018-11-10T09:26:05.823Z,1000.32
2018-11-10T09:27:03.954Z,1000.39
2018-11-10T09:29:03.914Z,1000.43
2018-11-10T09:30:03.942Z,1000.42
2018-11-10T09:31:04.032Z,1000.45
2018-11-10T09:32:04.162Z,1000.51
2018-11-10T09:33:03.853Z,1000.54
2018-11-10T09:34:04.556Z,1000.55
2018-11-10T09:35:03.848Z,1000.58
2018-11-10T09:36:03.818Z,1000.58
2018-11-10T09:37:04.053Z,1000.59
2018-11-10T09:39:03.771Z,1000.57
2018-11-10T09:40:03.750Z,1000.54
2018-11-10T09:41:03.791Z,1000.48
2018-11-10T09:42:03.807Z,1000.53
2018-11-10T09:43:03.711Z,1000.60
2018-11-10T09:44:04.010Z,1000.58
2018-11-10T09:45:03.683Z,1000.48
2018-11-10T09:46:03.666Z,1000.43
2018-11-10T09:47:04.360Z,1000.42
2018-11-10T09:48:03.639Z,1000.40
2018-11-10T09:49:03.608Z,1000.46
2018-11-10T09:50:03.858Z,1000.51
2018-11-10T09:51:03.575Z,1000.48
2018-11-10T09:53:03.549Z,1000.53
2018-11-10T09:54:03.515Z,1000.48
2018-11-10T09:55:03.519Z,1000.49
2018-11-10T09:56:05.796Z,1000.46
2018-11-10T09:57:03.484Z,1000.52
2018-11-10T09:58:03.467Z,1000.50
2018-11-10T09:59:03.449Z,1000.49
2018-11-10T10:00:03.437Z,1000.50
2018-11-10T10:01:03.528Z,1000.50
2018-11-10T10:02:04.300Z,1000.46
2018-11-10T10:03:03.388Z,1000.36
2018-11-10T10:04:03.891Z,1000.36
2018-11-10T10:05:04.881Z,1000.34
2018-11-10T10:07:04.749Z,1000.34
2018-11-10T10:08:03.615Z,1000.30
2018-11-10T10:09:09.559Z,1000.23
2018-11-10T10:10:03.268Z,1000.23
2018-11-10T10:11:03.248Z,1000.27
2018-11-10T10:13:05.086Z,1000.14
2018-11-10T10:15:03.185Z,1000.14
2018-11-10T10:16:03.918Z,1000.21
2018-11-10T10:17:03.164Z,1000.26
2018-11-10T10:18:03.165Z,1000.22
2018-11-10T10:19:36.575Z,1000.20
2018-11-10T10:20:03.441Z,1000.18
2018-11-10T10:22:03.196Z,1000.15
2018-11-10T10:23:03.088Z,1000.14
2018-11-10T10:26:03.331Z,1000.21
2018-11-10T10:27:03.175Z,1000.21
2018-11-10T10:28:03.084Z,1000.23
2018-11-10T10:29:03.043Z,1000.20
2018-11-10T10:30:02.975Z,1000.24
2018-11-10T10:31:02.936Z,1000.15
2018-11-10T10:32:02.933Z,1000.19
2018-11-10T10:33:03.875Z,1000.13
2018-11-10T10:34:02.978Z,1000.13
2018-11-10T10:35:02.984Z,1000.15
2018-11-10T10:37:02.896Z,1000.14
2018-11-10T10:38:02.863Z,1000.24
2018-11-10T10:39:03.370Z,1000.16
2018-11-10T10:40:02.989Z,1000.17
2018-11-10T10:41:02.838Z,1000.10
2018-11-10T10:42:02.818Z,1000.09
2018-11-10T10:43:02.896Z,1000.09
2018-11-10T10:44:03.010Z,1000.14
2018-11-10T10:45:03.253Z,1000.14
2018-11-10T10:46:02.897Z,1000.16
2018-11-10T10:47:02.748Z,1000.19
2018-11-10T10:48:02.704Z,1000.16
2018-11-10T10:49:02.713Z,1000.18
2018-11-10T10:50:02.655Z,1000.20
2018-11-10T10:51:03.825Z,1000.13
2018-11-10T10:52:02.818Z,1000.17
2018-11-10T10:53:02.832Z,1000.12
2018-11-10T10:54:03.302Z,1000.18
2018-11-10T10:55:02.775Z,1000.19
2018-11-10T10:56:02.875Z,1000.14
2018-11-10T10:57:02.883Z,1000.17
2018-11-10T10:58:02.511Z,1000.13
2018-11-10T10:59:02.507Z,1000.17
2018-11-10T11:01:03.086Z,1000.18
2018-11-10T11:02:08.870Z,1000.16
2018-11-10T11:03:04.383Z,1000.18
2018-11-10T11:04:02.423Z,1000.11
2018-11-10T11:05:02.575Z,1000.15
2018-11-10T11:06:02.397Z,1000.15
2018-11-10T11:07:02.376Z,1000.08
2018-11-10T11:08:08.640Z,1000.08
2018-11-10T11:09:02.759Z,1000.05
2018-11-10T11:10:02.609Z,999.96
2018-11-10T11:11:02.322Z,999.96
2018-11-10T11:12:02.500Z,999.99
2018-11-10T11:13:02.271Z,999.96
2018-11-10T11:14:02.337Z,999.96
2018-11-10T11:15:02.589Z,999.97
2018-11-10T11:16:02.588Z,999.99
2018-11-10T11:17:02.218Z,999.93
2018-11-10T11:18:02.230Z,999.95
2018-11-10T11:19:02.180Z,999.92
2018-11-10T11:20:02.209Z,999.91
2018-11-10T11:21:02.780Z,999.85
2018-11-10T11:22:02.209Z,999.90
2018-11-10T11:23:02.093Z,999.90
2018-11-10T11:24:02.106Z,999.91
2018-11-10T11:25:02.807Z,999.94
2018-11-10T11:26:02.708Z,999.89
2018-11-10T11:27:02.337Z,999.90
2018-11-10T11:28:02.843Z,999.88
2018-11-10T11:29:03.515Z,999.87
2018-11-10T11:30:02.040Z,999.91
2018-11-10T11:31:02.568Z,999.87
2018-11-10T11:32:02.027Z,999.85
2018-11-10T11:33:05.208Z,999.88
2018-11-10T11:34:01.947Z,999.89
2018-11-10T11:35:01.976Z,999.93
2018-11-10T11:36:02.169Z,999.95
2018-11-10T11:37:02.616Z,999.97
2018-11-10T11:38:02.049Z,999.91
2018-11-10T11:39:05.238Z,999.87
2018-11-10T11:40:08.195Z,999.90
2018-11-10T11:41:01.885Z,999.92
2018-11-10T11:42:14.553Z,999.89
2018-11-10T11:43:02.365Z,999.88
2018-11-10T11:44:14.503Z,999.91
2018-11-10T11:45:02.661Z,999.91
2018-11-10T11:46:04.726Z,999.83
2018-11-10T11:47:01.727Z,999.87
2018-11-10T11:48:01.668Z,999.89
2018-11-10T11:49:01.640Z,999.90
2018-11-10T11:50:02.232Z,999.88
2018-11-10T11:51:01.939Z,999.87
2018-11-10T11:52:01.663Z,999.93
2018-11-10T11:53:01.639Z,999.94
2018-11-10T11:54:01.567Z,999.93
2018-11-10T11:55:02.266Z,999.98
2018-11-10T11:56:01.657Z,1000.05
2018-11-10T11:57:01.850Z,1000.15
2018-11-10T11:58:01.778Z,1000.23
2018-11-10T11:59:01.508Z,1000.13
2018-11-10T12:00:01.480Z,1000.10
2018-11-10T12:01:01.508Z,1000.07
2018-11-10T12:02:01.564Z,1000.02
2018-11-10T12:03:01.427Z,999.99
2018-11-10T12:04:01.417Z,999.94
2018-11-10T12:05:01.397Z,999.88
2018-11-10T12:06:01.403Z,999.88
2018-11-10T12:07:01.369Z,999.83
2018-11-10T12:08:01.657Z,999.80
2018-11-10T12:09:01.933Z,999.79
2018-11-10T12:10:01.326Z,999.78
2018-11-10T12:11:01.291Z,999.77
2018-11-10T12:12:01.291Z,999.75
2018-11-10T12:13:01.269Z,999.76
2018-11-10T12:14:01.562Z,999.77
2018-11-10T12:15:01.549Z,999.83
2018-11-10T12:16:01.240Z,999.82
2018-11-10T12:17:01.560Z,999.87
2018-11-10T12:18:01.209Z,999.84
2018-11-10T12:19:01.456Z,999.87
2018-11-10T12:20:02.474Z,999.84
2018-11-10T12:21:01.555Z,999.85
2018-11-10T12:22:01.307Z,999.78
2018-11-10T12:23:01.133Z,999.79
2018-11-10T12:24:01.117Z,999.78
2018-11-10T12:25:01.098Z,999.73
2018-11-10T12:26:01.729Z,999.71
2018-11-10T12:27:01.404Z,999.70
2018-11-10T12:28:04.296Z,999.67
2018-11-10T12:29:01.855Z,999.63
2018-11-10T12:30:01.258Z,999.65
2018-11-10T12:31:04.152Z,999.61
2018-11-10T12:32:01.734Z,999.63
2018-11-10T12:33:01.009Z,999.65
2018-11-10T12:34:01.057Z,999.66
2018-11-10T12:35:00.945Z,999.63
2018-11-10T12:36:00.977Z,999.59
2018-11-10T12:37:01.108Z,999.66
2018-11-10T12:38:01.144Z,999.65
2018-11-10T12:39:01.012Z,999.64
2018-11-10T12:40:00.884Z,999.62
2018-11-10T12:41:01.467Z,999.61
2018-11-10T12:42:00.852Z,999.56
2018-11-10T12:43:00.825Z,999.58
2018-11-10T12:44:01.409Z,999.57
2018-11-10T12:45:00.804Z,999.59
2018-11-10T12:46:00.778Z,999.65
2018-11-10T12:47:00.794Z,999.62
2018-11-10T12:48:00.770Z,999.58
2018-11-10T12:49:00.799Z,999.55